sensor_id;sensor_type;location;lat;lon;timestamp;P1;durP1;ratioP1;P2;durP2;ratioP2
18136;SDS011;9194;42.632;23.298;2023-09-18T00:03:45;9.50;;;3.45;;
18136;SDS011;9194;42.632;23.298;2023-09-18T00:08:46;2.28;;;2.15;;
18136;SDS011;9194;42.632;23.298;2023-09-18T00:13:47;3.45;;;3.20;;
18136;SDS011;9194;42.632;23.298;2023-09-18T00:18:48;4.32;;;2.95;;
18136;SDS011;9194;42.632;23.298;2023-09-18T00:23:50;6.40;;;3.10;;
18136;SDS011;9194;42.632;23.298;2023-09-18T00:28:51;6.47;;;3.53;;
18136;SDS011;9194;42.632;23.298;2023-09-18T00:33:52;3.58;;;3.17;;
18136;SDS011;9194;42.632;23.298;2023-09-18T00:38:53;3.53;;;2.90;;
18136;SDS011;9194;42.632;23.298;2023-09-18T00:43:54;2.28;;;2.08;;
18136;SDS011;9194;42.632;23.298;2023-09-18T00:48:55;3.78;;;3.03;;
18136;SDS011;9194;42.632;23.298;2023-09-18T00:53:57;1.98;;;1.85;;
18136;SDS011;9194;42.632;23.298;2023-09-18T00:59:00;2.03;;;1.92;;
18136;SDS011;9194;42.632;23.298;2023-09-18T01:04:03;2.20;;;2.08;;
18136;SDS011;9194;42.632;23.298;2023-09-18T01:09:05;9.20;;;3.08;;
18136;SDS011;9194;42.632;23.298;2023-09-18T01:14:20;3.08;;;2.40;;
18136;SDS011;9194;42.632;23.298;2023-09-18T01:19:42;2.67;;;2.00;;
18136;SDS011;9194;42.632;23.298;2023-09-18T01:24:47;2.88;;;2.65;;
18136;SDS011;9194;42.632;23.298;2023-09-18T01:29:49;2.70;;;2.50;;
18136;SDS011;9194;42.632;23.298;2023-09-18T01:34:51;4.57;;;2.95;;
18136;SDS011;9194;42.632;23.298;2023-09-18T01:39:55;6.30;;;2.42;;
18136;SDS011;9194;42.632;23.298;2023-09-18T01:44:59;11.85;;;2.50;;
18136;SDS011;9194;42.632;23.298;2023-09-18T01:50:03;2.50;;;1.65;;
18136;SDS011;9194;42.632;23.298;2023-09-18T01:55:08;2.72;;;2.55;;
18136;SDS011;9194;42.632;23.298;2023-09-18T02:00:10;1.85;;;1.75;;
18136;SDS011;9194;42.632;23.298;2023-09-18T02:05:15;4.45;;;3.22;;
18136;SDS011;9194;42.632;23.298;2023-09-18T02:10:17;2.75;;;2.58;;
18136;SDS011;9194;42.632;23.298;2023-09-18T02:15:18;2.40;;;2.20;;
18136;SDS011;9194;42.632;23.298;2023-09-18T02:20:19;2.70;;;2.53;;
18136;SDS011;9194;42.632;23.298;2023-09-18T02:25:21;4.28;;;2.55;;
18136;SDS011;9194;42.632;23.298;2023-09-18T02:30:22;2.85;;;2.65;;
18136;SDS011;9194;42.632;23.298;2023-09-18T02:35:23;8.27;;;3.25;;
18136;SDS011;9194;42.632;23.298;2023-09-18T02:40:24;3.53;;;2.33;;
18136;SDS011;9194;42.632;23.298;2023-09-18T02:45:25;3.08;;;2.15;;
18136;SDS011;9194;42.632;23.298;2023-09-18T02:50:26;5.90;;;3.25;;
18136;SDS011;9194;42.632;23.298;2023-09-18T02:55:28;3.20;;;2.38;;
18136;SDS011;9194;42.632;23.298;2023-09-18T03:00:29;3.80;;;3.10;;
18136;SDS011;9194;42.632;23.298;2023-09-18T03:05:31;11.05;;;3.83;;
18136;SDS011;9194;42.632;23.298;2023-09-18T03:10:36;3.03;;;2.70;;
18136;SDS011;9194;42.632;23.298;2023-09-18T03:15:41;2.92;;;2.72;;
18136;SDS011;9194;42.632;23.298;2023-09-18T03:20:46;6.05;;;3.08;;
18136;SDS011;9194;42.632;23.298;2023-09-18T03:25:49;8.38;;;3.55;;
18136;SDS011;9194;42.632;23.298;2023-09-18T03:30:50;6.00;;;2.95;;
18136;SDS011;9194;42.632;23.298;2023-09-18T03:35:54;3.17;;;2.95;;
18136;SDS011;9194;42.632;23.298;2023-09-18T03:41:01;10.13;;;3.58;;
18136;SDS011;9194;42.632;23.298;2023-09-18T03:46:03;7.32;;;4.35;;
18136;SDS011;9194;42.632;23.298;2023-09-18T03:51:07;3.42;;;3.13;;
18136;SDS011;9194;42.632;23.298;2023-09-18T03:56:13;7.97;;;4.38;;
18136;SDS011;9194;42.632;23.298;2023-09-18T04:01:15;8.93;;;4.05;;
18136;SDS011;9194;42.632;23.298;2023-09-18T04:06:17;4.97;;;2.78;;
18136;SDS011;9194;42.632;23.298;2023-09-18T04:11:21;10.35;;;3.40;;
18136;SDS011;9194;42.632;23.298;2023-09-18T04:16:26;6.35;;;4.13;;
18136;SDS011;9194;42.632;23.298;2023-09-18T04:21:28;2.72;;;2.53;;
18136;SDS011;9194;42.632;23.298;2023-09-18T04:26:32;4.78;;;3.13;;
18136;SDS011;9194;42.632;23.298;2023-09-18T04:31:34;2.90;;;2.70;;
18136;SDS011;9194;42.632;23.298;2023-09-18T04:36:35;4.70;;;3.05;;
18136;SDS011;9194;42.632;23.298;2023-09-18T04:41:38;4.35;;;3.10;;
18136;SDS011;9194;42.632;23.298;2023-09-18T04:46:41;6.47;;;3.10;;
18136;SDS011;9194;42.632;23.298;2023-09-18T04:51:45;7.80;;;4.63;;
18136;SDS011;9194;42.632;23.298;2023-09-18T04:56:47;5.00;;;3.85;;
18136;SDS011;9194;42.632;23.298;2023-09-18T05:01:48;3.78;;;2.72;;
18136;SDS011;9194;42.632;23.298;2023-09-18T05:06:49;4.13;;;3.80;;
18136;SDS011;9194;42.632;23.298;2023-09-18T05:11:50;3.65;;;3.22;;
18136;SDS011;9194;42.632;23.298;2023-09-18T05:16:52;4.63;;;2.03;;
18136;SDS011;9194;42.632;23.298;2023-09-18T05:21:53;8.30;;;5.05;;
18136;SDS011;9194;42.632;23.298;2023-09-18T05:26:54;4.68;;;3.05;;
18136;SDS011;9194;42.632;23.298;2023-09-18T05:31:56;2.75;;;2.33;;
18136;SDS011;9194;42.632;23.298;2023-09-18T05:36:57;2.92;;;2.72;;
18136;SDS011;9194;42.632;23.298;2023-09-18T05:41:58;4.63;;;2.50;;
18136;SDS011;9194;42.632;23.298;2023-09-18T05:47:00;3.13;;;2.92;;
18136;SDS011;9194;42.632;23.298;2023-09-18T05:52:03;3.65;;;3.35;;
18136;SDS011;9194;42.632;23.298;2023-09-18T05:57:04;4.30;;;2.85;;
18136;SDS011;9194;42.632;23.298;2023-09-18T06:02:05;7.22;;;4.43;;
18136;SDS011;9194;42.632;23.298;2023-09-18T06:07:07;9.25;;;3.70;;
18136;SDS011;9194;42.632;23.298;2023-09-18T06:12:08;3.75;;;3.20;;
18136;SDS011;9194;42.632;23.298;2023-09-18T06:17:10;6.47;;;3.25;;
18136;SDS011;9194;42.632;23.298;2023-09-18T06:22:12;4.35;;;2.95;;
18136;SDS011;9194;42.632;23.298;2023-09-18T06:27:14;4.43;;;3.38;;
18136;SDS011;9194;42.632;23.298;2023-09-18T06:32:15;3.65;;;2.80;;
18136;SDS011;9194;42.632;23.298;2023-09-18T06:37:16;5.53;;;4.00;;
18136;SDS011;9194;42.632;23.298;2023-09-18T06:42:19;3.30;;;3.10;;
18136;SDS011;9194;42.632;23.298;2023-09-18T06:47:21;3.30;;;2.78;;
18136;SDS011;9194;42.632;23.298;2023-09-18T06:52:24;6.10;;;3.17;;
18136;SDS011;9194;42.632;23.298;2023-09-18T06:57:27;3.20;;;2.95;;
18136;SDS011;9194;42.632;23.298;2023-09-18T07:02:28;7.18;;;4.00;;
18136;SDS011;9194;42.632;23.298;2023-09-18T07:07:29;4.80;;;3.42;;
18136;SDS011;9194;42.632;23.298;2023-09-18T07:12:31;3.25;;;2.85;;
18136;SDS011;9194;42.632;23.298;2023-09-18T07:17:33;4.05;;;2.72;;
18136;SDS011;9194;42.632;23.298;2023-09-18T07:22:35;5.38;;;3.35;;
18136;SDS011;9194;42.632;23.298;2023-09-18T07:27:37;2.67;;;2.53;;
18136;SDS011;9194;42.632;23.298;2023-09-18T07:32:39;3.10;;;2.72;;
18136;SDS011;9194;42.632;23.298;2023-09-18T07:37:41;3.25;;;2.63;;
18136;SDS011;9194;42.632;23.298;2023-09-18T07:42:45;2.83;;;2.63;;
18136;SDS011;9194;42.632;23.298;2023-09-18T07:47:46;6.55;;;3.53;;
18136;SDS011;9194;42.632;23.298;2023-09-18T07:52:47;3.85;;;2.65;;
18136;SDS011;9194;42.632;23.298;2023-09-18T07:57:48;5.13;;;3.15;;
18136;SDS011;9194;42.632;23.298;2023-09-18T08:02:50;2.83;;;2.60;;
18136;SDS011;9194;42.632;23.298;2023-09-18T08:07:55;2.80;;;2.60;;
18136;SDS011;9194;42.632;23.298;2023-09-18T08:12:57;3.85;;;3.33;;
18136;SDS011;9194;42.632;23.298;2023-09-18T08:17:58;4.25;;;3.10;;
18136;SDS011;9194;42.632;23.298;2023-09-18T08:22:59;3.33;;;2.90;;
18136;SDS011;9194;42.632;23.298;2023-09-18T08:28:06;3.55;;;3.15;;
18136;SDS011;9194;42.632;23.298;2023-09-18T08:33:07;6.65;;;3.15;;
18136;SDS011;9194;42.632;23.298;2023-09-18T08:38:08;2.55;;;2.30;;
18136;SDS011;9194;42.632;23.298;2023-09-18T08:43:10;2.67;;;2.47;;
18136;SDS011;9194;42.632;23.298;2023-09-18T08:48:12;2.65;;;2.45;;
18136;SDS011;9194;42.632;23.298;2023-09-18T08:53:13;2.67;;;2.40;;
18136;SDS011;9194;42.632;23.298;2023-09-18T08:58:15;3.20;;;2.83;;
18136;SDS011;9194;42.632;23.298;2023-09-18T09:03:20;3.13;;;2.40;;
18136;SDS011;9194;42.632;23.298;2023-09-18T09:08:21;2.95;;;2.63;;
18136;SDS011;9194;42.632;23.298;2023-09-18T09:13:22;2.40;;;2.17;;
18136;SDS011;9194;42.632;23.298;2023-09-18T09:18:27;4.25;;;2.15;;
18136;SDS011;9194;42.632;23.298;2023-09-18T09:23:44;9.48;;;2.75;;
18136;SDS011;9194;42.632;23.298;2023-09-18T09:28:50;6.82;;;2.25;;
18136;SDS011;9194;42.632;23.298;2023-09-18T09:33:51;1.25;;;1.23;;
18136;SDS011;9194;42.632;23.298;2023-09-18T09:39:06;5.35;;;2.72;;
18136;SDS011;9194;42.632;23.298;2023-09-18T09:44:07;1.67;;;1.58;;
18136;SDS011;9194;42.632;23.298;2023-09-18T09:49:09;4.35;;;2.20;;
18136;SDS011;9194;42.632;23.298;2023-09-18T09:54:10;3.13;;;1.65;;
18136;SDS011;9194;42.632;23.298;2023-09-18T09:59:13;2.40;;;1.50;;
18136;SDS011;9194;42.632;23.298;2023-09-18T10:04:16;2.95;;;1.98;;
18136;SDS011;9194;42.632;23.298;2023-09-18T10:09:19;1.13;;;1.05;;
18136;SDS011;9194;42.632;23.298;2023-09-18T10:14:32;1.20;;;1.13;;
18136;SDS011;9194;42.632;23.298;2023-09-18T10:20:21;1.83;;;1.73;;
18136;SDS011;9194;42.632;23.298;2023-09-18T10:25:17;4.22;;;1.65;;
18136;SDS011;9194;42.632;23.298;2023-09-18T10:30:22;2.35;;;2.15;;
18136;SDS011;9194;42.632;23.298;2023-09-18T10:35:23;1.35;;;1.35;;
18136;SDS011;9194;42.632;23.298;2023-09-18T10:40:25;2.17;;;1.85;;
18136;SDS011;9194;42.632;23.298;2023-09-18T10:45:28;1.95;;;1.50;;
18136;SDS011;9194;42.632;23.298;2023-09-18T10:50:29;1.63;;;1.55;;
18136;SDS011;9194;42.632;23.298;2023-09-18T10:55:31;4.30;;;1.50;;
18136;SDS011;9194;42.632;23.298;2023-09-18T11:00:34;2.20;;;2.10;;
18136;SDS011;9194;42.632;23.298;2023-09-18T11:05:37;1.92;;;1.83;;
18136;SDS011;9194;42.632;23.298;2023-09-18T11:10:54;1.95;;;1.80;;
18136;SDS011;9194;42.632;23.298;2023-09-18T11:21:28;2.03;;;1.77;;
18136;SDS011;9194;42.632;23.298;2023-09-18T11:26:34;2.53;;;1.77;;
18136;SDS011;9194;42.632;23.298;2023-09-18T11:31:43;1.40;;;1.38;;
18136;SDS011;9194;42.632;23.298;2023-09-18T11:36:46;1.25;;;1.25;;
18136;SDS011;9194;42.632;23.298;2023-09-18T11:41:47;2.38;;;1.35;;
18136;SDS011;9194;42.632;23.298;2023-09-18T11:46:50;2.75;;;1.52;;
18136;SDS011;9194;42.632;23.298;2023-09-18T11:51:53;1.00;;;1.00;;
18136;SDS011;9194;42.632;23.298;2023-09-18T11:57:02;1.75;;;1.30;;
18136;SDS011;9194;42.632;23.298;2023-09-18T12:02:06;1.00;;;1.00;;
18136;SDS011;9194;42.632;23.298;2023-09-18T12:07:08;1.67;;;1.63;;
18136;SDS011;9194;42.632;23.298;2023-09-18T12:12:10;1.77;;;1.40;;
18136;SDS011;9194;42.632;23.298;2023-09-18T12:17:16;3.35;;;1.65;;
18136;SDS011;9194;42.632;23.298;2023-09-18T12:22:22;8.07;;;1.50;;
18136;SDS011;9194;42.632;23.298;2023-09-18T12:27:27;1.45;;;1.35;;
18136;SDS011;9194;42.632;23.298;2023-09-18T12:32:30;1.23;;;1.23;;
18136;SDS011;9194;42.632;23.298;2023-09-18T12:37:39;7.15;;;2.42;;
18136;SDS011;9194;42.632;23.298;2023-09-18T12:42:41;1.15;;;1.13;;
18136;SDS011;9194;42.632;23.298;2023-09-18T12:47:43;1.50;;;1.45;;
18136;SDS011;9194;42.632;23.298;2023-09-18T12:52:45;1.65;;;1.60;;
18136;SDS011;9194;42.632;23.298;2023-09-18T12:57:46;1.10;;;1.10;;
18136;SDS011;9194;42.632;23.298;2023-09-18T13:02:47;1.65;;;1.58;;
18136;SDS011;9194;42.632;23.298;2023-09-18T13:07:55;0.80;;;0.80;;
18136;SDS011;9194;42.632;23.298;2023-09-18T13:12:57;1.38;;;1.30;;
18136;SDS011;9194;42.632;23.298;2023-09-18T13:18:00;1.35;;;1.35;;
18136;SDS011;9194;42.632;23.298;2023-09-18T13:23:09;1.25;;;1.25;;
18136;SDS011;9194;42.632;23.298;2023-09-18T13:28:11;1.42;;;1.33;;
18136;SDS011;9194;42.632;23.298;2023-09-18T13:33:15;1.45;;;1.45;;
18136;SDS011;9194;42.632;23.298;2023-09-18T13:38:17;1.88;;;1.75;;
18136;SDS011;9194;42.632;23.298;2023-09-18T13:43:19;1.17;;;1.15;;
18136;SDS011;9194;42.632;23.298;2023-09-18T13:48:22;1.48;;;1.35;;
18136;SDS011;9194;42.632;23.298;2023-09-18T13:53:24;1.10;;;1.10;;
18136;SDS011;9194;42.632;23.298;2023-09-18T13:58:26;1.30;;;1.20;;
18136;SDS011;9194;42.632;23.298;2023-09-18T14:03:28;1.00;;;1.00;;
18136;SDS011;9194;42.632;23.298;2023-09-18T14:08:29;1.15;;;1.05;;
18136;SDS011;9194;42.632;23.298;2023-09-18T14:13:30;2.92;;;1.52;;
18136;SDS011;9194;42.632;23.298;2023-09-18T14:18:31;1.25;;;1.15;;
18136;SDS011;9194;42.632;23.298;2023-09-18T14:23:33;1.52;;;1.40;;
18136;SDS011;9194;42.632;23.298;2023-09-18T14:28:35;3.45;;;2.20;;
18136;SDS011;9194;42.632;23.298;2023-09-18T14:33:36;1.58;;;1.48;;
18136;SDS011;9194;42.632;23.298;2023-09-18T14:38:38;2.70;;;2.05;;
18136;SDS011;9194;42.632;23.298;2023-09-18T14:43:39;3.53;;;1.75;;
18136;SDS011;9194;42.632;23.298;2023-09-18T14:48:40;1.40;;;1.40;;
18136;SDS011;9194;42.632;23.298;2023-09-18T14:53:42;2.67;;;1.98;;
18136;SDS011;9194;42.632;23.298;2023-09-18T14:58:43;1.45;;;1.10;;
18136;SDS011;9194;42.632;23.298;2023-09-18T15:03:44;1.42;;;1.30;;
18136;SDS011;9194;42.632;23.298;2023-09-18T15:08:45;1.35;;;1.17;;
18136;SDS011;9194;42.632;23.298;2023-09-18T15:13:47;1.50;;;1.40;;
18136;SDS011;9194;42.632;23.298;2023-09-18T15:18:48;2.28;;;1.88;;
18136;SDS011;9194;42.632;23.298;2023-09-18T15:23:50;1.17;;;1.17;;
18136;SDS011;9194;42.632;23.298;2023-09-18T15:28:52;1.35;;;1.30;;
18136;SDS011;9194;42.632;23.298;2023-09-18T15:33:53;1.10;;;1.10;;
18136;SDS011;9194;42.632;23.298;2023-09-18T15:38:55;1.20;;;1.20;;
18136;SDS011;9194;42.632;23.298;2023-09-18T15:43:57;1.52;;;1.45;;
18136;SDS011;9194;42.632;23.298;2023-09-18T15:48:58;1.60;;;1.50;;
18136;SDS011;9194;42.632;23.298;2023-09-18T15:53:59;1.30;;;1.23;;
18136;SDS011;9194;42.632;23.298;2023-09-18T15:59:00;1.17;;;1.17;;
18136;SDS011;9194;42.632;23.298;2023-09-18T16:04:02;2.88;;;1.90;;
18136;SDS011;9194;42.632;23.298;2023-09-18T16:09:03;1.80;;;1.70;;
18136;SDS011;9194;42.632;23.298;2023-09-18T16:14:07;1.20;;;1.20;;
18136;SDS011;9194;42.632;23.298;2023-09-18T16:19:08;1.13;;;1.13;;
18136;SDS011;9194;42.632;23.298;2023-09-18T16:24:09;2.83;;;1.92;;
18136;SDS011;9194;42.632;23.298;2023-09-18T16:29:10;1.30;;;1.30;;
18136;SDS011;9194;42.632;23.298;2023-09-18T16:34:12;2.15;;;2.03;;
18136;SDS011;9194;42.632;23.298;2023-09-18T16:39:13;1.60;;;1.50;;
18136;SDS011;9194;42.632;23.298;2023-09-18T16:44:42;1.05;;;1.05;;
18136;SDS011;9194;42.632;23.298;2023-09-18T16:49:43;1.08;;;1.08;;
18136;SDS011;9194;42.632;23.298;2023-09-18T16:54:44;2.15;;;1.23;;
18136;SDS011;9194;42.632;23.298;2023-09-18T16:59:46;1.70;;;1.60;;
18136;SDS011;9194;42.632;23.298;2023-09-18T17:04:47;1.02;;;1.02;;
18136;SDS011;9194;42.632;23.298;2023-09-18T17:09:49;2.08;;;1.83;;
18136;SDS011;9194;42.632;23.298;2023-09-18T17:14:50;3.13;;;1.73;;
18136;SDS011;9194;42.632;23.298;2023-09-18T17:19:52;1.00;;;1.00;;
18136;SDS011;9194;42.632;23.298;2023-09-18T17:24:53;1.00;;;1.00;;
18136;SDS011;9194;42.632;23.298;2023-09-18T17:29:54;1.88;;;1.77;;
18136;SDS011;9194;42.632;23.298;2023-09-18T17:34:56;1.33;;;1.33;;
18136;SDS011;9194;42.632;23.298;2023-09-18T17:39:58;1.23;;;1.23;;
18136;SDS011;9194;42.632;23.298;2023-09-18T17:45:00;1.45;;;1.35;;
18136;SDS011;9194;42.632;23.298;2023-09-18T17:50:01;4.57;;;1.70;;
18136;SDS011;9194;42.632;23.298;2023-09-18T17:55:02;1.83;;;1.05;;
18136;SDS011;9194;42.632;23.298;2023-09-18T18:00:05;1.10;;;1.10;;
18136;SDS011;9194;42.632;23.298;2023-09-18T18:05:13;1.25;;;1.25;;
18136;SDS011;9194;42.632;23.298;2023-09-18T18:10:14;3.40;;;1.55;;
18136;SDS011;9194;42.632;23.298;2023-09-18T18:15:15;1.63;;;1.52;;
18136;SDS011;9194;42.632;23.298;2023-09-18T18:20:17;4.38;;;1.65;;
18136;SDS011;9194;42.632;23.298;2023-09-18T18:25:20;1.45;;;1.33;;
18136;SDS011;9194;42.632;23.298;2023-09-18T18:30:21;0.98;;;0.98;;
18136;SDS011;9194;42.632;23.298;2023-09-18T18:35:22;1.33;;;1.27;;
18136;SDS011;9194;42.632;23.298;2023-09-18T18:40:23;2.00;;;1.38;;
18136;SDS011;9194;42.632;23.298;2023-09-18T18:45:24;1.90;;;1.77;;
18136;SDS011;9194;42.632;23.298;2023-09-18T18:50:27;1.55;;;1.52;;
18136;SDS011;9194;42.632;23.298;2023-09-18T18:55:28;5.20;;;1.45;;
18136;SDS011;9194;42.632;23.298;2023-09-18T19:00:30;3.60;;;1.70;;
18136;SDS011;9194;42.632;23.298;2023-09-18T19:05:31;1.60;;;1.50;;
18136;SDS011;9194;42.632;23.298;2023-09-18T19:10:32;1.45;;;1.45;;
18136;SDS011;9194;42.632;23.298;2023-09-18T19:15:33;1.35;;;1.33;;
18136;SDS011;9194;42.632;23.298;2023-09-18T19:20:35;2.17;;;1.98;;
18136;SDS011;9194;42.632;23.298;2023-09-18T19:25:44;2.33;;;2.20;;
18136;SDS011;9194;42.632;23.298;2023-09-18T19:30:50;5.05;;;2.30;;
18136;SDS011;9194;42.632;23.298;2023-09-18T19:35:56;1.70;;;1.60;;
18136;SDS011;9194;42.632;23.298;2023-09-18T19:40:58;1.83;;;1.70;;
18136;SDS011;9194;42.632;23.298;2023-09-18T19:46:00;4.28;;;2.05;;
18136;SDS011;9194;42.632;23.298;2023-09-18T19:51:01;1.90;;;1.80;;
18136;SDS011;9194;42.632;23.298;2023-09-18T19:56:04;1.25;;;1.25;;
18136;SDS011;9194;42.632;23.298;2023-09-18T20:01:06;1.75;;;1.65;;
18136;SDS011;9194;42.632;23.298;2023-09-18T20:06:08;1.20;;;1.20;;
18136;SDS011;9194;42.632;23.298;2023-09-18T20:11:09;1.25;;;1.25;;
18136;SDS011;9194;42.632;23.298;2023-09-18T20:16:12;1.13;;;1.13;;
18136;SDS011;9194;42.632;23.298;2023-09-18T20:21:14;1.15;;;1.15;;
18136;SDS011;9194;42.632;23.298;2023-09-18T20:26:16;1.27;;;1.27;;
18136;SDS011;9194;42.632;23.298;2023-09-18T20:31:18;1.52;;;1.42;;
18136;SDS011;9194;42.632;23.298;2023-09-18T20:36:19;1.45;;;1.42;;
18136;SDS011;9194;42.632;23.298;2023-09-18T20:41:21;1.48;;;1.38;;
18136;SDS011;9194;42.632;23.298;2023-09-18T20:46:22;1.30;;;1.20;;
18136;SDS011;9194;42.632;23.298;2023-09-18T20:51:24;1.02;;;1.02;;
18136;SDS011;9194;42.632;23.298;2023-09-18T20:56:25;2.85;;;1.55;;
18136;SDS011;9194;42.632;23.298;2023-09-18T21:01:29;1.67;;;1.40;;
18136;SDS011;9194;42.632;23.298;2023-09-18T21:06:31;1.17;;;1.08;;
18136;SDS011;9194;42.632;23.298;2023-09-18T21:11:33;1.00;;;1.00;;
18136;SDS011;9194;42.632;23.298;2023-09-18T21:16:34;8.05;;;1.48;;
18136;SDS011;9194;42.632;23.298;2023-09-18T21:21:36;1.65;;;1.42;;
18136;SDS011;9194;42.632;23.298;2023-09-18T21:26:37;1.50;;;1.45;;
18136;SDS011;9194;42.632;23.298;2023-09-18T21:31:39;1.40;;;1.40;;
18136;SDS011;9194;42.632;23.298;2023-09-18T21:36:40;1.55;;;1.52;;
18136;SDS011;9194;42.632;23.298;2023-09-18T21:41:41;1.10;;;1.10;;
18136;SDS011;9194;42.632;23.298;2023-09-18T21:46:42;1.40;;;1.40;;
18136;SDS011;9194;42.632;23.298;2023-09-18T21:51:44;1.30;;;1.27;;
18136;SDS011;9194;42.632;23.298;2023-09-18T21:56:45;1.33;;;1.33;;
18136;SDS011;9194;42.632;23.298;2023-09-18T22:01:46;0.90;;;0.90;;
18136;SDS011;9194;42.632;23.298;2023-09-18T22:06:48;1.17;;;1.17;;
18136;SDS011;9194;42.632;23.298;2023-09-18T22:11:49;1.10;;;1.10;;
18136;SDS011;9194;42.632;23.298;2023-09-18T22:16:50;2.15;;;1.42;;
18136;SDS011;9194;42.632;23.298;2023-09-18T22:21:51;1.00;;;1.00;;
18136;SDS011;9194;42.632;23.298;2023-09-18T22:26:52;1.75;;;1.65;;
18136;SDS011;9194;42.632;23.298;2023-09-18T22:31:54;2.00;;;1.90;;
18136;SDS011;9194;42.632;23.298;2023-09-18T22:36:57;1.50;;;1.50;;
18136;SDS011;9194;42.632;23.298;2023-09-18T22:57:46;1.35;;;1.30;;
18136;SDS011;9194;42.632;23.298;2023-09-18T23:02:48;2.35;;;1.67;;
18136;SDS011;9194;42.632;23.298;2023-09-18T23:07:55;6.18;;;1.60;;
18136;SDS011;9194;42.632;23.298;2023-09-18T23:13:00;1.05;;;1.05;;
18136;SDS011;9194;42.632;23.298;2023-09-18T23:18:04;1.48;;;1.38;;
18136;SDS011;9194;42.632;23.298;2023-09-18T23:23:09;2.08;;;1.33;;
18136;SDS011;9194;42.632;23.298;2023-09-18T23:28:12;1.13;;;1.13;;
18136;SDS011;9194;42.632;23.298;2023-09-18T23:33:16;1.08;;;1.08;;
18136;SDS011;9194;42.632;23.298;2023-09-18T23:38:20;1.60;;;1.50;;
18136;SDS011;9194;42.632;23.298;2023-09-18T23:43:24;1.23;;;1.23;;
18136;SDS011;9194;42.632;23.298;2023-09-18T23:48:26;1.98;;;1.88;;
18136;SDS011;9194;42.632;23.298;2023-09-18T23:53:28;1.38;;;1.27;;
18136;SDS011;9194;42.632;23.298;2023-09-18T23:58:30;2.40;;;1.30;;
